Time;durP1;ratioP1;P1;durP2;ratioP2;P2;SDS_P1;SDS_P2;PMS_P1;PMS_P2;Temp;Humidity;BMP_temperature;BMP_pressure;BME280_temperature;BME280_humidity;BME280_pressure;Samples;Min_cycle;Max_cycle;Signal;HPM_P1;HPM_P2
2021/06/04 00:02:25;;;;;;;4.00;3.60;;;19.70;99.90;;;;;;5016223;28;20199;-77
2021/06/04 00:04:52;;;;;;;3.90;3.60;;;19.60;99.90;;;;;;5010588;28;20223;-77
2021/06/04 00:07:19;;;;;;;3.97;3.67;;;19.60;99.90;;;;;;5009269;28;20825;-76
2021/06/04 00:09:45;;;;;;;4.10;3.80;;;19.60;99.90;;;;;;5015640;28;20227;-75
2021/06/04 00:12:12;;;;;;;4.40;4.00;;;19.60;99.90;;;;;;5026809;28;20210;-77
2021/06/04 00:14:41;;;;;;;4.03;3.72;;;19.50;99.90;;;;;;5026698;28;20230;-77
2021/06/04 00:17:12;;;;;;;4.30;4.00;;;19.50;99.90;;;;;;5028063;28;20643;-77
2021/06/04 00:19:40;;;;;;;6.40;3.42;;;19.50;99.90;;;;;;5028363;28;20211;-77
2021/06/04 00:22:10;;;;;;;4.35;4.00;;;19.40;99.90;;;;;;5022748;28;20209;-77
2021/06/04 00:24:39;;;;;;;4.20;3.90;;;19.40;99.90;;;;;;5069034;22;20230;-74
2021/06/04 00:27:06;;;;;;;4.60;4.25;;;19.30;99.90;;;;;;5014168;28;20206;-75
2021/06/04 00:29:34;;;;;;;4.15;3.75;;;19.30;99.90;;;;;;5026049;28;20241;-74
2021/06/04 00:32:01;;;;;;;4.10;3.78;;;19.20;99.90;;;;;;5039513;28;20718;-74
2021/06/04 00:34:29;;;;;;;4.40;4.07;;;19.10;99.90;;;;;;5040031;28;20306;-74
2021/06/04 00:36:56;;;;;;;4.10;3.78;;;19.10;99.90;;;;;;5036940;28;20771;-75
2021/06/04 00:39:27;;;;;;;4.10;3.80;;;19.10;99.90;;;;;;5059267;28;20246;-75
2021/06/04 00:41:56;;;;;;;4.63;4.22;;;19.10;99.90;;;;;;5039316;28;20187;-74
2021/06/04 00:44:24;;;;;;;4.35;4.05;;;19.10;99.90;;;;;;5042629;28;21660;-74
2021/06/04 00:46:51;;;;;;;4.53;4.22;;;19.00;99.90;;;;;;5035450;28;20194;-75
2021/06/04 00:49:18;;;;;;;5.18;4.10;;;19.00;99.90;;;;;;5040521;28;20215;-74
2021/06/04 00:51:50;;;;;;;4.43;3.95;;;19.00;99.90;;;;;;5037876;28;20191;-75
2021/06/04 00:54:19;;;;;;;4.50;4.20;;;19.00;99.90;;;;;;5037717;28;20290;-74
2021/06/04 00:56:47;;;;;;;4.32;4.03;;;18.90;99.90;;;;;;5037276;28;20222;-75
2021/06/04 00:59:23;;;;;;;4.63;4.22;;;18.90;99.90;;;;;;5037534;28;20302;-74
2021/06/04 01:01:51;;;;;;;4.38;4.07;;;18.90;99.90;;;;;;5039534;28;20202;-75
2021/06/04 01:04:23;;;;;;;4.63;4.32;;;18.90;99.90;;;;;;5038523;28;20298;-74
2021/06/04 01:07:00;;;;;;;4.82;4.43;;;18.90;99.90;;;;;;5035352;28;20223;-75
2021/06/04 01:09:34;;;;;;;4.20;3.90;;;18.80;99.90;;;;;;5042062;28;20623;-74
2021/06/04 01:12:25;;;;;;;4.25;3.95;;;18.80;99.90;;;;;;5041824;28;20222;-74
2021/06/04 01:15:06;;;;;;;4.68;4.00;;;18.90;99.90;;;;;;5039025;28;20760;-75
2021/06/04 01:17:39;;;;;;;5.60;4.28;;;18.80;99.90;;;;;;5041500;28;20290;-74
2021/06/04 01:20:11;;;;;;;4.70;4.30;;;18.70;99.90;;;;;;5036695;28;20349;-75
2021/06/04 01:23:08;;;;;;;4.28;3.83;;;18.70;99.90;;;;;;5038086;28;20195;-74
2021/06/04 01:25:48;;;;;;;4.95;4.45;;;18.70;99.90;;;;;;5056236;28;20250;-75
2021/06/04 01:28:21;;;;;;;4.53;4.13;;;18.60;99.90;;;;;;5038979;28;20214;-74
2021/06/04 01:30:53;;;;;;;4.40;4.00;;;18.60;99.90;;;;;;5037795;28;20317;-75
2021/06/04 01:33:27;;;;;;;4.32;4.03;;;18.60;99.90;;;;;;5041456;28;20222;-75
2021/06/04 01:35:58;;;;;;;4.82;4.43;;;18.60;99.90;;;;;;5039294;28;20214;-74
2021/06/04 01:38:27;;;;;;;4.43;4.10;;;18.60;99.90;;;;;;5041313;28;20610;-73
2021/06/04 01:41:00;;;;;;;4.82;3.85;;;18.70;99.90;;;;;;5041805;28;20780;-73
2021/06/04 01:43:31;;;;;;;4.90;4.50;;;18.90;99.90;;;;;;5042124;28;20219;-74
2021/06/04 01:46:03;;;;;;;5.45;4.13;;;19.00;99.90;;;;;;5042188;28;20223;-74
2021/06/04 01:48:36;;;;;;;4.88;4.38;;;19.10;99.90;;;;;;5042866;28;20594;-74
2021/06/04 01:51:07;;;;;;;4.95;4.50;;;19.10;99.90;;;;;;5045235;28;20754;-74
2021/06/04 01:53:37;;;;;;;5.10;4.50;;;19.10;99.90;;;;;;5043136;28;20273;-74
2021/06/04 01:56:09;;;;;;;4.82;4.43;;;19.10;99.90;;;;;;5045599;28;20318;-73
2021/06/04 01:58:41;;;;;;;4.30;3.90;;;19.20;99.90;;;;;;5040635;28;20654;-74
2021/06/04 02:01:11;;;;;;;4.60;4.20;;;19.30;99.90;;;;;;5043257;28;20668;-73
2021/06/04 02:03:39;;;;;;;5.45;4.10;;;19.30;99.90;;;;;;5044666;28;20265;-74
2021/06/04 02:06:08;;;;;;;5.15;4.68;;;19.20;99.90;;;;;;5039501;28;20717;-74
2021/06/04 02:08:37;;;;;;;4.43;4.10;;;19.20;99.90;;;;;;5049345;28;20199;-74
2021/06/04 02:11:07;;;;;;;4.43;4.10;;;19.10;99.90;;;;;;5064739;28;20227;-74
2021/06/04 02:13:34;;;;;;;4.35;4.03;;;19.10;99.90;;;;;;5044029;28;20221;-74
2021/06/04 02:16:18;;;;;;;4.88;4.47;;;19.10;99.90;;;;;;5045315;28;20231;-74
2021/06/04 02:18:55;;;;;;;4.72;4.32;;;19.00;99.90;;;;;;5045776;28;20196;-73
2021/06/04 02:21:27;;;;;;;4.78;4.32;;;18.90;99.90;;;;;;5042183;28;20237;-74
2021/06/04 02:24:02;;;;;;;4.65;4.25;;;18.90;99.90;;;;;;5044945;28;20279;-74
2021/06/04 02:26:37;;;;;;;4.50;4.18;;;19.00;99.90;;;;;;5043297;28;20218;-74
2021/06/04 02:29:09;;;;;;;4.43;4.07;;;19.00;99.90;;;;;;5044973;28;20217;-73
2021/06/04 02:31:40;;;;;;;4.60;4.20;;;18.90;99.90;;;;;;5041773;28;20636;-74
2021/06/04 02:34:11;;;;;;;5.10;4.70;;;18.90;99.90;;;;;;5042926;28;20281;-73
2021/06/04 02:36:43;;;;;;;4.65;4.35;;;18.80;99.90;;;;;;5041627;28;20222;-73
2021/06/04 02:39:15;;;;;;;5.35;4.68;;;18.80;99.90;;;;;;5042178;28;20443;-73
2021/06/04 02:41:46;;;;;;;4.60;4.28;;;18.80;99.90;;;;;;5044022;28;20237;-73
2021/06/04 02:44:17;;;;;;;4.90;4.50;;;18.80;99.90;;;;;;5042388;28;20230;-74
2021/06/04 02:46:46;;;;;;;4.18;3.88;;;18.80;99.90;;;;;;5045603;28;20695;-73
2021/06/04 02:49:17;;;;;;;4.32;4.03;;;18.70;99.90;;;;;;5044978;28;20207;-74
2021/06/04 02:51:55;;;;;;;4.80;4.50;;;18.70;99.90;;;;;;5045699;28;20218;-73
2021/06/04 02:54:25;;;;;;;4.70;4.30;;;18.70;99.90;;;;;;5041316;28;20263;-74
2021/06/04 02:56:56;;;;;;;5.07;4.68;;;18.70;99.90;;;;;;5048025;28;20210;-74
2021/06/04 02:59:25;;;;;;;5.72;4.93;;;18.70;99.90;;;;;;5037521;28;20719;-74
2021/06/04 03:01:55;;;;;;;4.93;4.53;;;18.60;99.90;;;;;;5041460;28;20286;-73
2021/06/04 03:04:23;;;;;;;5.38;4.82;;;18.60;99.90;;;;;;5047468;28;20760;-73
2021/06/04 03:06:53;;;;;;;5.07;4.68;;;18.60;99.90;;;;;;5044980;28;20293;-73
2021/06/04 03:09:22;;;;;;;5.35;4.88;;;18.60;99.90;;;;;;5043931;28;20265;-74
2021/06/04 03:11:54;;;;;;;4.88;4.30;;;18.50;99.90;;;;;;5043668;28;20222;-74
2021/06/04 03:14:21;;;;;;;5.00;4.57;;;18.50;99.90;;;;;;5040428;28;20220;-73
2021/06/04 03:16:51;;;;;;;5.47;4.97;;;18.50;99.90;;;;;;5040720;28;20768;-73
2021/06/04 03:19:20;;;;;;;4.40;4.10;;;18.50;99.90;;;;;;5040016;28;20275;-74
2021/06/04 03:21:50;;;;;;;5.00;4.57;;;18.50;99.90;;;;;;5042410;28;20245;-73
2021/06/04 03:24:20;;;;;;;5.32;4.80;;;18.50;99.90;;;;;;5039266;28;20879;-73
2021/06/04 03:26:47;;;;;;;5.05;4.65;;;18.40;99.90;;;;;;5043989;28;20701;-73
2021/06/04 03:29:17;;;;;;;4.95;4.45;;;18.50;99.90;;;;;;5040786;28;20606;-73
2021/06/04 03:31:50;;;;;;;4.95;4.60;;;18.50;99.90;;;;;;5040146;28;20228;-73
2021/06/04 03:34:17;;;;;;;5.10;4.60;;;18.50;99.90;;;;;;5045150;28;20249;-73
2021/06/04 03:36:46;;;;;;;4.90;4.50;;;18.50;99.90;;;;;;5044334;28;20212;-73
2021/06/04 03:39:17;;;;;;;5.10;4.57;;;18.50;99.90;;;;;;5041744;28;20349;-73
2021/06/04 03:41:47;;;;;;;4.70;4.40;;;18.50;99.90;;;;;;5050395;28;20748;-73
2021/06/04 03:44:18;;;;;;;5.00;4.60;;;18.50;99.90;;;;;;5051612;28;20291;-74
2021/06/04 03:46:45;;;;;;;4.53;4.13;;;18.50;99.90;;;;;;5043783;28;20225;-73
2021/06/04 03:49:15;;;;;;;5.15;4.60;;;18.50;99.90;;;;;;5041988;28;20294;-73
2021/06/04 03:51:44;;;;;;;5.25;4.75;;;18.50;99.90;;;;;;5038074;28;20304;-74
2021/06/04 03:54:13;;;;;;;4.88;4.57;;;18.60;99.90;;;;;;5042457;28;20234;-73
2021/06/04 03:56:41;;;;;;;4.97;4.57;;;18.60;99.90;;;;;;5043332;28;20220;-73
2021/06/04 03:59:09;;;;;;;4.35;4.00;;;18.60;99.90;;;;;;5041374;28;20574;-73
2021/06/04 04:01:40;;;;;;;4.97;4.45;;;18.50;99.90;;;;;;5042507;28;20218;-73
2021/06/04 04:04:07;;;;;;;4.55;4.15;;;18.60;99.90;;;;;;5042630;28;20225;-73
2021/06/04 04:06:35;;;;;;;4.38;4.07;;;18.60;99.90;;;;;;5042979;28;20311;-73
2021/06/04 04:09:04;;;;;;;4.80;4.40;;;18.60;99.90;;;;;;5043698;28;20694;-73
2021/06/04 04:11:31;;;;;;;4.38;4.07;;;18.60;99.90;;;;;;5039964;28;20602;-73
2021/06/04 04:13:57;;;;;;;4.13;3.83;;;18.60;99.90;;;;;;5042132;28;20222;-73
2021/06/04 04:16:24;;;;;;;4.35;4.03;;;18.60;99.90;;;;;;5042063;28;20229;-73
2021/06/04 04:18:52;;;;;;;5.10;4.60;;;18.60;99.90;;;;;;5040758;28;20287;-73
2021/06/04 04:21:19;;;;;;;4.35;4.05;;;18.50;99.90;;;;;;5038051;28;20227;-73
2021/06/04 04:23:50;;;;;;;4.45;4.07;;;18.50;99.90;;;;;;5046411;28;20302;-73
2021/06/04 04:26:19;;;;;;;4.18;3.78;;;18.60;99.90;;;;;;5047733;28;20293;-73
2021/06/04 04:28:48;;;;;;;4.03;3.55;;;18.60;99.90;;;;;;5059809;28;20227;-73
2021/06/04 04:31:17;;;;;;;4.63;4.32;;;18.70;99.90;;;;;;5040417;28;20210;-73
2021/06/04 04:33:44;;;;;;;4.43;4.13;;;18.70;99.90;;;;;;5040084;28;20222;-73
2021/06/04 04:36:17;;;;;;;4.50;4.10;;;18.70;99.90;;;;;;5042158;28;20246;-73
2021/06/04 04:38:44;;;;;;;4.43;4.13;;;18.70;99.90;;;;;;5042621;28;20278;-73
2021/06/04 04:41:11;;;;;;;5.28;4.60;;;18.80;99.90;;;;;;5038149;28;20210;-73
2021/06/04 04:43:41;;;;;;;4.75;4.35;;;18.80;99.90;;;;;;5044283;28;20289;-73
2021/06/04 04:46:09;;;;;;;5.00;4.47;;;18.80;99.90;;;;;;5040768;28;20647;-73
2021/06/04 04:48:37;;;;;;;4.65;4.25;;;18.90;99.90;;;;;;5041368;28;20282;-73
2021/06/04 04:51:05;;;;;;;4.82;4.43;;;18.90;99.90;;;;;;5038680;28;20222;-73
2021/06/04 04:53:34;;;;;;;4.22;3.90;;;18.90;99.90;;;;;;5043901;28;20269;-73
2021/06/04 04:56:01;;;;;;;4.20;3.90;;;18.90;99.90;;;;;;5041754;28;20321;-74
2021/06/04 04:58:28;;;;;;;4.93;4.53;;;18.90;99.90;;;;;;5040861;28;20207;-74
2021/06/04 05:00:56;;;;;;;4.88;4.38;;;18.90;99.90;;;;;;5042000;28;20505;-74
2021/06/04 05:03:24;;;;;;;4.85;4.45;;;18.90;99.90;;;;;;5043430;28;20192;-74
2021/06/04 05:05:51;;;;;;;4.47;4.10;;;19.00;99.90;;;;;;5038496;28;20338;-74
2021/06/04 05:08:18;;;;;;;4.78;4.38;;;19.00;99.90;;;;;;5040760;28;20219;-74
2021/06/04 05:10:47;;;;;;;4.15;3.85;;;19.10;99.90;;;;;;5040281;28;20282;-73
2021/06/04 05:13:15;;;;;;;4.72;4.32;;;19.10;99.90;;;;;;5059563;28;20198;-74
2021/06/04 05:15:42;;;;;;;5.45;4.95;;;19.20;99.90;;;;;;5057886;28;20249;-74
2021/06/04 05:18:11;;;;;;;4.78;4.38;;;19.20;99.90;;;;;;5047655;28;20206;-74
2021/06/04 05:20:38;;;;;;;5.05;4.50;;;19.30;99.90;;;;;;5039652;28;20254;-74
2021/06/04 05:23:06;;;;;;;4.68;4.38;;;19.40;99.90;;;;;;5044746;28;20223;-74
2021/06/04 05:25:35;;;;;;;5.53;5.03;;;19.50;99.90;;;;;;5047048;28;20222;-74
2021/06/04 05:28:03;;;;;;;5.50;5.05;;;19.50;99.90;;;;;;5044521;28;20325;-73
2021/06/04 05:30:33;;;;;;;5.00;4.60;;;19.50;99.90;;;;;;5043308;28;20284;-73
2021/06/04 05:33:00;;;;;;;5.22;4.82;;;19.30;99.90;;;;;;5046845;28;20314;-74
2021/06/04 05:35:29;;;;;;;5.43;5.03;;;19.20;99.90;;;;;;5044930;28;20309;-74
2021/06/04 05:37:56;;;;;;;5.20;4.82;;;19.30;99.90;;;;;;5044980;28;20282;-74
2021/06/04 05:40:27;;;;;;;5.32;4.82;;;19.40;99.90;;;;;;5044597;28;20569;-74
2021/06/04 05:42:55;;;;;;;5.22;4.82;;;19.40;99.90;;;;;;5033794;28;20198;-73
2021/06/04 05:45:26;;;;;;;4.85;4.40;;;19.50;99.90;;;;;;5030711;28;20719;-73
2021/06/04 05:47:54;;;;;;;7.10;5.72;;;19.50;99.90;;;;;;5029596;28;20225;-73
2021/06/04 05:50:25;;;;;;;5.07;4.68;;;19.60;99.90;;;;;;5031386;28;20604;-72
2021/06/04 05:52:52;;;;;;;5.57;5.07;;;19.50;99.90;;;;;;5028941;28;20658;-73
2021/06/04 05:55:23;;;;;;;5.65;5.05;;;19.40;99.90;;;;;;5031685;28;20235;-73
2021/06/04 05:57:50;;;;;;;5.88;5.40;;;19.20;99.90;;;;;;5035189;28;20244;-75
2021/06/04 06:00:20;;;;;;;5.90;5.40;;;19.20;99.90;;;;;;5042035;28;20203;-73
2021/06/04 06:02:49;;;;;;;5.95;5.45;;;19.20;99.90;;;;;;5038124;28;20289;-73
2021/06/04 06:05:16;;;;;;;5.93;5.35;;;19.30;99.90;;;;;;5037221;28;20287;-74
2021/06/04 06:07:43;;;;;;;5.50;5.10;;;19.30;99.90;;;;;;5045623;28;20629;-74
2021/06/04 06:10:11;;;;;;;6.10;5.55;;;19.20;99.90;;;;;;5033389;28;20326;-74
2021/06/04 06:12:40;;;;;;;5.72;5.28;;;19.20;99.90;;;;;;5032777;28;20491;-74
2021/06/04 06:15:09;;;;;;;6.43;5.82;;;19.20;99.90;;;;;;5036451;28;20219;-75
2021/06/04 06:17:36;;;;;;;6.95;6.25;;;19.40;99.90;;;;;;5027386;28;20264;-74
2021/06/04 06:20:08;;;;;;;6.22;5.60;;;19.50;99.90;;;;;;5031751;28;20191;-73
2021/06/04 06:22:34;;;;;;;6.55;6.05;;;19.60;99.90;;;;;;5028878;28;20207;-74
2021/06/04 06:25:01;;;;;;;6.50;6.00;;;19.70;99.90;;;;;;5037841;28;20632;-73
2021/06/04 06:27:28;;;;;;;6.82;5.80;;;19.70;99.90;;;;;;5013917;28;20223;-73
2021/06/04 06:29:54;;;;;;;6.75;6.05;;;19.80;99.90;;;;;;5011448;28;20202;-73
2021/06/04 06:32:21;;;;;;;6.40;5.90;;;19.80;99.90;;;;;;5034251;28;20277;-73
2021/06/04 06:34:48;;;;;;;6.65;6.15;;;19.90;99.90;;;;;;5032393;28;20290;-73
2021/06/04 06:37:17;;;;;;;6.22;5.63;;;20.00;99.90;;;;;;5035362;28;20223;-73
2021/06/04 06:39:44;;;;;;;7.07;6.47;;;20.10;99.90;;;;;;5029872;28;20298;-73
2021/06/04 06:42:11;;;;;;;7.18;5.93;;;20.20;99.90;;;;;;5032056;28;20226;-73
2021/06/04 06:44:38;;;;;;;7.82;7.13;;;20.30;99.90;;;;;;5045404;28;20323;-74
2021/06/04 06:47:06;;;;;;;6.05;5.55;;;20.50;99.90;;;;;;5041087;28;20237;-73
2021/06/04 06:49:32;;;;;;;6.80;6.10;;;20.60;99.90;;;;;;5035044;28;20202;-73
2021/06/04 06:51:59;;;;;;;6.75;6.20;;;20.90;99.90;;;;;;5034070;28;20487;-74
2021/06/04 06:54:31;;;;;;;7.25;6.70;;;21.00;99.90;;;;;;5030546;28;20757;-73
2021/06/04 06:56:59;;;;;;;8.57;6.43;;;21.00;99.90;;;;;;5034998;28;20218;-73
2021/06/04 06:59:29;;;;;;;7.85;7.15;;;21.10;99.90;;;;;;5049379;28;20203;-73
2021/06/04 07:01:56;;;;;;;6.60;6.00;;;21.40;99.90;;;;;;5031803;28;20280;-73
2021/06/04 07:04:23;;;;;;;7.15;6.45;;;21.50;99.90;;;;;;5028285;28;20211;-73
2021/06/04 07:06:51;;;;;;;6.88;6.28;;;21.60;99.90;;;;;;5030867;28;20225;-73
2021/06/04 07:09:19;;;;;;;7.25;6.57;;;21.70;99.90;;;;;;5036187;28;20309;-73
2021/06/04 07:11:53;;;;;;;6.03;5.53;;;21.80;99.90;;;;;;5026961;28;20803;-74
2021/06/04 07:14:21;;;;;;;6.95;6.35;;;21.90;99.90;;;;;;5032147;28;20219;-73
2021/06/04 07:16:49;;;;;;;6.97;6.32;;;22.00;99.90;;;;;;5026221;28;20223;-74
2021/06/04 07:19:15;;;;;;;5.97;5.57;;;22.10;99.90;;;;;;5033215;28;20295;-73
2021/06/04 07:21:44;;;;;;;6.22;5.68;;;22.30;99.90;;;;;;5032758;28;20321;-74
2021/06/04 07:24:13;;;;;;;7.00;6.40;;;22.50;99.90;;;;;;5030563;28;20681;-74
2021/06/04 07:26:45;;;;;;;6.80;6.18;;;22.60;99.90;;;;;;5029295;28;20310;-74
2021/06/04 07:29:13;;;;;;;6.95;6.25;;;22.70;99.90;;;;;;5033783;28;20199;-74
2021/06/04 07:31:40;;;;;;;7.32;6.70;;;22.80;99.90;;;;;;5036347;28;20312;-74
2021/06/04 07:34:08;;;;;;;7.53;6.82;;;22.90;99.90;;;;;;5032657;28;20721;-74
2021/06/04 07:36:38;;;;;;;5.63;5.13;;;22.90;99.90;;;;;;5029125;28;20215;-73
2021/06/04 07:39:07;;;;;;;7.30;6.60;;;23.00;99.90;;;;;;5028586;28;20371;-73
2021/06/04 07:41:34;;;;;;;6.45;5.95;;;23.20;99.90;;;;;;5030606;28;20218;-73
2021/06/04 07:44:02;;;;;;;7.13;6.53;;;23.30;99.90;;;;;;5033177;28;20211;-73
2021/06/04 07:46:30;;;;;;;7.97;7.28;;;23.30;99.90;;;;;;5031219;28;20737;-73
2021/06/04 07:48:57;;;;;;;7.40;6.82;;;23.10;99.90;;;;;;5027645;28;20394;-73
2021/06/04 07:51:29;;;;;;;9.23;6.20;;;22.80;99.90;;;;;;5044442;28;20223;-73
2021/06/04 07:53:56;;;;;;;6.78;6.15;;;23.00;99.90;;;;;;5029334;28;20515;-73
2021/06/04 07:56:26;;;;;;;5.78;5.28;;;23.20;99.90;;;;;;5033595;28;20673;-73
2021/06/04 07:58:52;;;;;;;7.30;6.65;;;23.40;99.90;;;;;;5029123;28;20194;-73
2021/06/04 08:01:20;;;;;;;6.90;6.40;;;23.60;99.90;;;;;;5028390;28;20242;-73
2021/06/04 08:03:48;;;;;;;7.68;6.97;;;23.70;99.90;;;;;;5034850;28;20719;-73
2021/06/04 08:06:18;;;;;;;7.25;6.55;;;23.90;99.90;;;;;;5027213;28;20299;-74
2021/06/04 08:08:45;;;;;;;7.30;6.70;;;24.00;99.90;;;;;;5032933;28;20191;-74
2021/06/04 08:11:19;;;;;;;7.28;6.68;;;24.20;99.90;;;;;;5026212;28;20349;-73
2021/06/04 08:13:46;;;;;;;7.18;6.57;;;24.50;99.90;;;;;;5031880;28;20222;-73
2021/06/04 08:16:13;;;;;;;8.15;7.43;;;24.60;99.90;;;;;;5046185;28;20219;-74
2021/06/04 08:18:41;;;;;;;8.85;7.82;;;24.60;99.90;;;;;;5039974;28;20202;-73
2021/06/04 08:21:12;;;;;;;6.72;6.22;;;24.40;99.90;;;;;;5026536;28;20227;-74
2021/06/04 08:23:41;;;;;;;7.40;6.78;;;24.10;99.90;;;;;;5031213;28;20218;-74
2021/06/04 08:26:14;;;;;;;7.10;6.40;;;23.90;99.90;;;;;;5026429;28;20300;-73
2021/06/04 08:28:42;;;;;;;6.15;5.55;;;23.70;99.90;;;;;;5032055;28;20763;-74
2021/06/04 08:31:09;;;;;;;6.40;5.78;;;23.60;99.90;;;;;;5034497;28;20313;-74
2021/06/04 08:33:38;;;;;;;6.93;6.38;;;23.50;99.90;;;;;;5029382;28;20233;-74
2021/06/04 08:36:06;;;;;;;6.45;5.95;;;23.50;99.90;;;;;;5026548;28;20221;-75
2021/06/04 08:38:38;;;;;;;5.78;5.28;;;24.00;99.90;;;;;;5027415;28;20618;-73
2021/06/04 08:41:11;;;;;;;7.20;6.68;;;24.60;99.90;;;;;;5026106;28;20230;-74
2021/06/04 08:43:52;;;;;;;7.40;6.70;;;25.10;99.90;;;;;;5036948;28;20247;-74
2021/06/04 08:46:24;;;;;;;7.78;7.13;;;25.20;99.90;;;;;;5028554;28;20583;-73
2021/06/04 08:48:53;;;;;;;5.82;5.32;;;25.40;99.90;;;;;;5019765;28;20551;-73
2021/06/04 08:51:31;;;;;;;6.63;6.05;;;25.50;99.90;;;;;;5027235;28;20405;-73
2021/06/04 08:54:29;;;;;;;6.88;6.32;;;25.80;99.90;;;;;;5022445;28;20223;-74
2021/06/04 08:57:02;;;;;;;7.35;6.75;;;25.70;99.90;;;;;;5025228;28;20227;-74
2021/06/04 08:59:30;;;;;;;6.78;6.05;;;25.70;99.90;;;;;;5026643;28;20199;-74
2021/06/04 09:02:00;;;;;;;6.93;6.32;;;25.50;99.90;;;;;;5031728;28;20240;-73
2021/06/04 09:04:32;;;;;;;10.82;6.85;;;25.50;99.90;;;;;;5028851;28;20297;-74
2021/06/04 09:07:05;;;;;;;7.63;6.78;;;25.50;99.90;;;;;;5028421;28;20624;-73
2021/06/04 09:09:41;;;;;;;7.13;6.55;;;25.40;99.90;;;;;;5022582;28;20231;-74
2021/06/04 09:12:15;;;;;;;6.68;6.18;;;25.40;99.90;;;;;;5027554;28;20225;-74
2021/06/04 09:14:41;;;;;;;10.73;7.07;;;25.60;99.90;;;;;;5024404;28;21134;-74
2021/06/04 09:17:26;;;;;;;7.38;6.78;;;25.60;99.90;;;;;;5030341;28;20317;-74
2021/06/04 09:20:05;;;;;;;6.60;6.00;;;25.60;99.90;;;;;;5028119;28;20289;-73
2021/06/04 09:22:37;;;;;;;6.68;6.18;;;25.70;99.90;;;;;;5030558;28;20210;-74
2021/06/04 09:25:07;;;;;;;6.15;5.70;;;25.80;99.90;;;;;;5032529;28;20309;-74
2021/06/04 09:27:36;;;;;;;7.00;6.40;;;26.00;99.90;;;;;;5023942;28;20305;-74
2021/06/04 09:30:14;;;;;;;6.22;5.63;;;26.20;99.90;;;;;;5028202;28;20724;-73
2021/06/04 09:32:59;;;;;;;6.55;5.95;;;26.20;99.90;;;;;;5023084;28;20222;-73
2021/06/04 09:35:27;;;;;;;6.35;5.75;;;26.20;99.90;;;;;;5034074;28;20322;-74
2021/06/04 09:38:07;;;;;;;5.68;5.10;;;26.60;99.90;;;;;;5030653;28;20618;-73
2021/06/04 09:40:36;;;;;;;6.38;5.88;;;26.70;99.90;;;;;;5031722;28;20307;-73
2021/06/04 09:43:12;;;;;;;5.95;5.45;;;26.40;99.90;;;;;;5028255;28;20364;-73
2021/06/04 09:45:43;;;;;;;5.82;5.32;;;26.20;99.90;;;;;;5031064;28;20258;-74
2021/06/04 09:48:13;;;;;;;5.88;5.40;;;26.00;99.90;;;;;;5041089;28;20191;-74
2021/06/04 09:50:42;;;;;;;5.22;4.82;;;26.10;99.90;;;;;;5030220;28;20205;-74
2021/06/04 09:53:13;;;;;;;5.43;4.90;;;26.10;99.90;;;;;;5030132;28;20207;-73
2021/06/04 09:55:43;;;;;;;5.38;4.90;;;26.20;99.90;;;;;;5031220;28;20191;-74
2021/06/04 09:58:23;;;;;;;6.50;5.50;;;26.30;99.90;;;;;;5019232;28;20815;-74
2021/06/04 10:01:10;;;;;;;7.95;6.25;;;26.50;99.90;;;;;;5026203;28;20292;-73
2021/06/04 10:03:45;;;;;;;6.05;5.40;;;26.70;99.90;;;;;;5026722;28;20215;-74
2021/06/04 10:06:34;;;;;;;5.53;5.03;;;27.00;99.90;;;;;;5029767;28;20231;-74
2021/06/04 10:09:10;;;;;;;5.93;5.43;;;27.20;99.90;;;;;;5033924;28;20226;-75
2021/06/04 10:11:52;;;;;;;5.97;5.25;;;27.30;99.90;;;;;;5034099;28;20302;-75
2021/06/04 10:14:24;;;;;;;6.72;5.63;;;27.50;99.90;;;;;;5027491;28;20308;-74
2021/06/04 10:19:40;;;;;;;6.00;5.50;;;27.50;99.90;;;;;;5028237;28;20346;-74
2021/06/04 10:22:18;;;;;;;6.28;5.78;;;27.60;99.90;;;;;;5037141;28;20219;-73
2021/06/04 10:24:49;;;;;;;6.18;5.68;;;27.80;99.90;;;;;;5030841;28;20230;-74
2021/06/04 10:27:34;;;;;;;7.80;7.03;;;28.00;99.90;;;;;;5035973;28;20215;-74
2021/06/04 10:30:09;;;;;;;7.25;5.30;;;27.90;99.90;;;;;;5032199;28;20213;-73
2021/06/04 10:32:46;;;;;;;7.60;6.80;;;28.20;99.90;;;;;;5042757;28;20222;-74
2021/06/04 10:35:21;;;;;;;7.28;6.53;;;28.20;99.90;;;;;;5029723;28;20218;-75
2021/06/04 10:37:55;;;;;;;6.72;6.13;;;28.20;99.90;;;;;;5032801;28;20310;-72
2021/06/04 10:40:29;;;;;;;5.05;4.57;;;28.20;99.90;;;;;;5031121;28;20202;-75
2021/06/04 10:43:19;;;;;;;6.10;5.15;;;28.60;99.90;;;;;;5031808;28;20796;-75
2021/06/04 10:45:50;;;;;;;6.13;5.63;;;28.90;99.90;;;;;;5031940;28;20191;-73
2021/06/04 10:48:37;;;;;;;6.00;5.50;;;28.90;99.90;;;;;;5027389;28;20218;-76
2021/06/04 10:51:15;;;;;;;6.13;4.32;;;28.80;99.90;;;;;;5031171;28;20199;-75
2021/06/04 10:53:48;;;;;;;5.90;5.40;;;28.70;99.90;;;;;;5030945;28;20965;-75
2021/06/04 10:56:20;;;;;;;4.88;4.40;;;28.70;99.90;;;;;;5033171;28;20544;-75
2021/06/04 10:58:58;;;;;;;7.05;6.35;;;28.60;99.90;;;;;;5031759;28;20265;-74
2021/06/04 11:01:32;;;;;;;4.53;4.22;;;28.70;99.90;;;;;;5031247;28;20235;-76
2021/06/04 11:04:06;;;;;;;6.85;5.78;;;28.90;99.90;;;;;;5026676;28;20597;-75
2021/06/04 11:06:41;;;;;;;6.70;5.50;;;29.00;99.90;;;;;;5035697;28;20770;-75
2021/06/04 11:09:16;;;;;;;6.00;5.50;;;28.90;99.90;;;;;;5032427;28;20215;-75
2021/06/04 11:11:53;;;;;;;5.50;5.10;;;28.80;99.90;;;;;;5030457;28;20222;-75
2021/06/04 11:14:58;;;;;;;5.50;5.03;;;28.80;99.90;;;;;;5028229;28;20712;-73
2021/06/04 11:17:37;;;;;;;5.60;4.88;;;29.00;99.90;;;;;;5040778;28;20225;-76
2021/06/04 11:20:13;;;;;;;5.20;4.70;;;29.10;99.90;;;;;;5039008;28;20233;-76
2021/06/04 11:22:51;;;;;;;6.32;5.07;;;29.00;99.90;;;;;;5034329;28;20407;-76
2021/06/04 11:25:38;;;;;;;5.35;4.85;;;29.00;99.90;;;;;;5026619;28;20233;-74
2021/06/04 11:28:20;;;;;;;4.57;4.25;;;28.90;99.90;;;;;;5030915;28;20211;-74
2021/06/04 11:30:53;;;;;;;5.00;4.60;;;29.10;99.90;;;;;;5028628;28;20200;-73
2021/06/04 11:33:23;;;;;;;4.75;4.30;;;29.30;99.90;;;;;;5032636;28;20228;-73
2021/06/04 11:35:53;;;;;;;4.32;4.00;;;29.40;99.90;;;;;;5030704;28;20298;-73
2021/06/04 11:38:30;;;;;;;4.13;3.83;;;29.30;99.90;;;;;;5031640;28;20948;-75
2021/06/04 11:41:06;;;;;;;4.40;4.00;;;29.30;99.90;;;;;;5027024;28;20565;-75
2021/06/04 11:43:37;;;;;;;3.60;3.40;;;29.20;99.90;;;;;;5035546;28;20600;-73
2021/06/04 11:46:23;;;;;;;3.92;3.45;;;29.40;99.90;;;;;;5028033;28;20203;-74
2021/06/04 11:49:03;;;;;;;5.05;4.53;;;29.50;99.90;;;;;;5029064;28;20207;-74
2021/06/04 11:51:33;;;;;;;3.50;3.10;;;29.40;99.90;;;;;;5029918;28;20642;-74
2021/06/04 11:54:19;;;;;;;3.75;3.40;;;29.50;99.90;;;;;;5032927;28;20243;-73
2021/06/04 11:56:56;;;;;;;3.42;3.13;;;29.90;99.90;;;;;;5018628;28;20282;-76
2021/06/04 12:00:07;;;;;;;3.50;3.20;;;30.20;99.90;;;;;;5031871;28;20712;-75
2021/06/04 12:02:46;;;;;;;3.75;3.42;;;30.40;99.90;;;;;;4972858;28;20232;-74
2021/06/04 12:05:37;;;;;;;3.10;2.70;;;30.80;99.90;;;;;;5039509;28;20306;-77
2021/06/04 12:08:44;;;;;;;3.20;2.90;;;30.80;99.90;;;;;;5028520;28;20441;-75
2021/06/04 12:11:35;;;;;;;2.95;2.75;;;30.90;99.90;;;;;;5029852;28;20285;-76
2021/06/04 12:14:21;;;;;;;3.35;3.08;;;30.70;99.90;;;;;;5026361;28;20249;-76
2021/06/04 12:17:16;;;;;;;3.25;2.95;;;30.60;99.90;;;;;;5032804;28;20271;-77
2021/06/04 12:19:45;;;;;;;3.03;2.70;;;30.50;99.60;;;;;;5028490;28;20214;-76
2021/06/04 12:22:35;;;;;;;3.08;2.88;;;30.40;99.90;;;;;;5028576;28;20338;-77
2021/06/04 12:25:07;;;;;;;5.03;3.35;;;30.40;99.90;;;;;;5028963;23;20381;-76
2021/06/04 12:28:04;;;;;;;4.03;3.25;;;30.30;99.90;;;;;;5011781;28;20254;-77
2021/06/04 12:30:59;;;;;;;4.63;3.03;;;30.20;99.90;;;;;;4999048;28;20224;-75
2021/06/04 12:33:46;;;;;;;2.90;2.70;;;30.20;99.10;;;;;;4994386;28;20204;-78
2021/06/04 12:36:52;;;;;;;2.85;2.60;;;30.20;99.60;;;;;;4969553;28;20584;-77
2021/06/04 12:39:56;;;;;;;3.15;2.78;;;30.20;98.70;;;;;;4972449;28;20498;-78
2021/06/04 12:42:39;;;;;;;3.40;2.63;;;30.10;98.40;;;;;;4975445;28;20585;-77
2021/06/04 12:45:24;;;;;;;2.65;2.45;;;30.00;98.90;;;;;;4972177;28;20226;-75
2021/06/04 12:47:55;;;;;;;2.70;2.10;;;30.00;97.10;;;;;;4975978;28;20287;-77
2021/06/04 12:50:33;;;;;;;3.47;2.45;;;29.90;98.10;;;;;;4987315;28;20331;-80
2021/06/04 12:53:26;;;;;;;4.00;2.45;;;29.90;97.60;;;;;;4996992;28;20282;-77
2021/06/04 12:56:05;;;;;;;3.58;2.22;;;30.00;97.60;;;;;;4986028;28;20310;-76
2021/06/04 12:58:34;;;;;;;3.10;2.90;;;30.10;98.20;;;;;;4995365;28;20254;-76
2021/06/04 13:01:09;;;;;;;3.38;2.72;;;30.00;97.30;;;;;;4975701;28;20311;-76
2021/06/04 13:03:39;;;;;;;2.95;2.53;;;30.00;97.70;;;;;;4976917;28;20295;-76
2021/06/04 13:06:18;;;;;;;2.72;2.30;;;29.90;96.30;;;;;;4983734;28;20303;-76
2021/06/04 13:08:48;;;;;;;3.60;2.42;;;30.00;97.90;;;;;;4978432;28;20228;-78
2021/06/04 13:11:33;;;;;;;3.47;2.45;;;30.00;96.90;;;;;;4976364;28;20235;-78
2021/06/04 13:13:59;;;;;;;3.50;2.13;;;30.00;95.40;;;;;;4979159;28;20229;-75
2021/06/04 13:16:31;;;;;;;2.53;1.80;;;30.00;96.90;;;;;;5000047;28;20203;-78
2021/06/04 13:19:10;;;;;;;3.10;2.80;;;30.10;95.60;;;;;;4992637;28;20228;-76